createdAt,value
2022-08-04T00:01:08.507Z,10.63
2022-08-04T00:03:52.984Z,10.82
2022-08-04T00:06:39.801Z,10.75
2022-08-04T00:09:17.745Z,10.20
2022-08-04T00:11:50.660Z,10.80
2022-08-04T00:14:24.083Z,10.32
2022-08-04T00:16:55.019Z,10.15
2022-08-04T00:19:33.112Z,9.27
2022-08-04T00:22:05.126Z,10.00
2022-08-04T00:24:34.792Z,9.77
2022-08-04T00:27:03.147Z,9.73
2022-08-04T00:29:32.276Z,10.05
2022-08-04T00:32:04.144Z,9.00
2022-08-04T00:34:35.543Z,9.60
2022-08-04T00:37:05.529Z,9.85
2022-08-04T00:39:34.625Z,10.43
2022-08-04T00:42:38.151Z,10.65
2022-08-04T00:46:16.896Z,9.30
2022-08-04T00:49:17.217Z,8.77
2022-08-04T00:52:31.326Z,8.38
2022-08-04T00:55:09.042Z,9.80
2022-08-04T00:57:55.968Z,9.50
2022-08-04T01:00:24.263Z,9.90
2022-08-04T01:03:10.838Z,9.25
2022-08-04T01:06:00.760Z,9.52
2022-08-04T01:08:50.627Z,9.77
2022-08-04T01:11:56.658Z,9.60
2022-08-04T01:15:04.889Z,9.90
2022-08-04T01:17:50.997Z,9.15
2022-08-04T01:20:26.992Z,9.25
2022-08-04T01:23:50.567Z,9.45
2022-08-04T01:26:58.276Z,9.40
2022-08-04T01:29:46.457Z,9.48
2022-08-04T01:32:26.760Z,8.95
2022-08-04T01:35:03.414Z,8.73
2022-08-04T01:37:49.963Z,8.95
2022-08-04T01:40:18.524Z,8.88
2022-08-04T01:42:50.160Z,8.30
2022-08-04T01:45:19.473Z,8.50
2022-08-04T01:47:52.622Z,8.80
2022-08-04T01:50:22.267Z,9.27
2022-08-04T01:52:56.035Z,8.55
2022-08-04T01:55:24.276Z,7.82
2022-08-04T01:58:13.530Z,8.50
2022-08-04T02:00:56.709Z,9.63
2022-08-04T02:04:18.619Z,8.57
2022-08-04T02:06:32.363Z,8.45
2022-08-04T02:09:13.300Z,9.10
2022-08-04T02:11:46.200Z,8.65
2022-08-04T02:14:41.571Z,9.00
2022-08-04T02:17:14.649Z,9.20
2022-08-04T02:20:04.653Z,9.35
2022-08-04T02:22:35.520Z,8.40
2022-08-04T02:25:09.001Z,10.32
2022-08-04T02:28:01.107Z,9.80
2022-08-04T02:30:35.429Z,10.25
2022-08-04T02:33:09.553Z,9.57
2022-08-04T02:35:42.029Z,9.23
2022-08-04T02:38:25.807Z,9.50
2022-08-04T02:41:00.317Z,9.57
2022-08-04T02:43:51.189Z,9.55
2022-08-04T02:46:20.895Z,9.07
2022-08-04T02:48:53.026Z,8.95
2022-08-04T02:51:26.905Z,8.50
2022-08-04T02:53:57.819Z,9.18
2022-08-04T02:56:30.969Z,8.70
2022-08-04T02:59:02.496Z,9.85
2022-08-04T03:01:31.313Z,8.60
2022-08-04T03:04:26.655Z,9.07
2022-08-04T03:07:42.905Z,8.27
2022-08-04T03:10:44.908Z,8.07
2022-08-04T03:14:12.927Z,8.93
2022-08-04T03:17:32.245Z,8.15
2022-08-04T03:20:53.812Z,8.02
2022-08-04T03:24:00.962Z,8.82
2022-08-04T03:27:18.984Z,8.35
2022-08-04T03:30:09.713Z,7.82
2022-08-04T03:33:25.383Z,8.27
2022-08-04T03:36:30.123Z,7.80
2022-08-04T03:39:32.003Z,7.15
2022-08-04T03:42:44.877Z,7.47
2022-08-04T03:46:15.915Z,7.22
2022-08-04T03:49:25.066Z,7.35
2022-08-04T03:52:27.099Z,6.53
2022-08-04T03:55:31.861Z,7.25
2022-08-04T03:58:45.357Z,6.78
2022-08-04T04:02:02.582Z,6.28
2022-08-04T04:05:10.059Z,6.57
2022-08-04T04:08:19.166Z,6.35
2022-08-04T04:11:57.316Z,6.30
2022-08-04T04:14:53.747Z,6.57
2022-08-04T04:17:56.805Z,7.20
2022-08-04T04:20:54.310Z,6.55
2022-08-04T04:23:46.116Z,6.28
2022-08-04T04:26:38.986Z,5.95
2022-08-04T04:29:29.843Z,5.72
2022-08-04T04:32:24.033Z,5.28
2022-08-04T04:35:12.294Z,5.47
2022-08-04T04:38:22.435Z,6.03
2022-08-04T04:41:13.921Z,5.65
2022-08-04T04:44:10.441Z,5.22
2022-08-04T04:46:46.819Z,5.93
2022-08-04T04:49:32.197Z,6.20
2022-08-04T04:52:10.920Z,5.43
2022-08-04T04:54:52.240Z,5.10
2022-08-04T04:57:54.175Z,5.03
2022-08-04T05:00:15.288Z,6.90
2022-08-04T05:03:29.930Z,6.60
2022-08-04T05:06:22.634Z,6.38
2022-08-04T05:09:08.853Z,6.70
2022-08-04T05:14:30.018Z,6.07
2022-08-04T05:15:09.792Z,6.97
2022-08-04T05:17:42.913Z,6.63
2022-08-04T05:20:17.805Z,6.00
2022-08-04T05:22:55.010Z,5.82
2022-08-04T05:25:28.424Z,6.13
2022-08-04T05:28:06.170Z,5.95
2022-08-04T05:30:48.289Z,5.90
2022-08-04T05:33:24.915Z,6.10
2022-08-04T05:36:18.840Z,6.30
2022-08-04T05:38:54.704Z,11.05
2022-08-04T05:41:23.794Z,8.38
2022-08-04T05:44:02.636Z,9.18
2022-08-04T05:46:33.425Z,7.95
2022-08-04T05:49:01.525Z,7.82
2022-08-04T05:51:30.887Z,9.40
2022-08-04T05:54:00.141Z,8.45
2022-08-04T05:56:29.368Z,7.80
2022-08-04T05:58:58.818Z,8.40
2022-08-04T06:01:29.142Z,6.72
2022-08-04T06:04:00.877Z,6.97
2022-08-04T06:06:31.099Z,7.45
2022-08-04T06:08:59.247Z,6.80
2022-08-04T06:11:30.053Z,5.97
2022-08-04T06:14:01.862Z,6.20
2022-08-04T06:16:38.217Z,6.07
2022-08-04T06:20:00.959Z,6.57
2022-08-04T06:22:03.603Z,6.93
2022-08-04T06:24:35.838Z,6.78
2022-08-04T06:27:06.923Z,6.75
2022-08-04T06:29:40.205Z,6.82
2022-08-04T06:32:27.437Z,6.43
2022-08-04T06:35:03.995Z,6.47
2022-08-04T06:37:41.847Z,6.43
2022-08-04T06:40:31.006Z,5.75
2022-08-04T06:43:01.744Z,6.30
2022-08-04T06:45:30.975Z,5.53
2022-08-04T06:48:01.013Z,6.15
2022-08-04T06:51:32.149Z,5.25
2022-08-04T06:53:20.218Z,5.43
2022-08-04T06:55:50.868Z,5.78
2022-08-04T06:58:21.640Z,6.30
2022-08-04T07:00:51.556Z,6.45
2022-08-04T07:03:21.810Z,5.57
2022-08-04T07:05:53.208Z,5.80
2022-08-04T07:08:22.144Z,5.25
2022-08-04T07:10:50.840Z,5.43
2022-08-04T07:13:19.686Z,5.50
2022-08-04T07:15:50.667Z,5.57
2022-08-04T07:18:18.889Z,5.05
2022-08-04T07:20:48.354Z,5.00
2022-08-04T07:23:25.823Z,4.82
2022-08-04T07:25:58.609Z,5.00
2022-08-04T07:28:31.339Z,4.80
2022-08-04T07:30:59.904Z,5.28
2022-08-04T07:33:29.733Z,4.70
2022-08-04T07:36:04.480Z,5.45
2022-08-04T07:38:37.421Z,5.15
2022-08-04T07:43:55.752Z,5.55
2022-08-04T07:46:23.807Z,4.70
2022-08-04T07:48:51.880Z,4.55
2022-08-04T07:51:19.965Z,5.00
2022-08-04T07:53:53.900Z,5.72
2022-08-04T07:56:25.385Z,4.47
2022-08-04T07:58:53.264Z,4.00
2022-08-04T08:01:22.211Z,4.40
2022-08-04T08:03:52.495Z,4.45
2022-08-04T08:06:31.105Z,4.75
2022-08-04T08:09:12.660Z,4.28
2022-08-04T08:12:37.544Z,4.65
2022-08-04T08:14:32.547Z,5.28
2022-08-04T08:17:02.540Z,4.45
2022-08-04T08:19:31.011Z,4.53
2022-08-04T08:22:00.918Z,3.80
2022-08-04T08:24:31.760Z,3.75
2022-08-04T08:27:00.979Z,5.30
2022-08-04T08:29:31.426Z,3.90
2022-08-04T08:32:07.486Z,4.65
2022-08-04T08:34:38.383Z,3.55
2022-08-04T08:37:14.551Z,3.72
2022-08-04T08:39:58.149Z,4.60
2022-08-04T08:42:57.452Z,3.30
2022-08-04T08:46:00.568Z,3.78
2022-08-04T08:50:02.563Z,4.20
2022-08-04T08:52:57.356Z,4.30
2022-08-04T08:55:33.357Z,4.15
2022-08-04T08:58:33.609Z,4.22
2022-08-04T09:01:19.900Z,4.35
2022-08-04T09:04:11.374Z,4.13
2022-08-04T09:07:08.316Z,4.00
2022-08-04T09:09:54.250Z,4.38
2022-08-04T09:12:36.826Z,4.30
2022-08-04T09:15:14.634Z,4.32
2022-08-04T09:17:51.536Z,4.57
2022-08-04T09:20:31.935Z,4.65
2022-08-04T09:23:18.150Z,4.07
2022-08-04T09:25:59.008Z,4.00
2022-08-04T09:28:53.553Z,4.60
2022-08-04T09:31:51.334Z,4.53
2022-08-04T09:34:35.525Z,3.97
2022-08-04T09:37:15.924Z,5.60
2022-08-04T09:39:56.550Z,3.75
2022-08-04T09:42:38.950Z,3.45
2022-08-04T09:45:26.428Z,3.28
2022-08-04T09:48:00.991Z,3.58
2022-08-04T09:50:36.549Z,3.85
2022-08-04T09:53:28.274Z,3.65
2022-08-04T09:56:09.562Z,4.18
2022-08-04T09:58:52.106Z,3.67
2022-08-04T10:01:25.431Z,3.55
2022-08-04T10:04:00.056Z,3.55
2022-08-04T10:07:10.585Z,3.58
2022-08-04T10:10:13.237Z,3.92
2022-08-04T10:13:04.398Z,3.28
2022-08-04T10:15:45.710Z,3.85
2022-08-04T10:18:39.508Z,3.75
2022-08-04T10:21:19.484Z,3.65
2022-08-04T10:24:29.877Z,2.97
2022-08-04T10:27:07.077Z,2.92
2022-08-04T10:29:44.636Z,3.30
2022-08-04T10:32:19.554Z,3.10
2022-08-04T10:35:09.268Z,3.10
2022-08-04T10:37:54.659Z,3.20
2022-08-04T10:40:37.599Z,3.90
2022-08-04T10:43:22.135Z,3.10
2022-08-04T10:45:59.144Z,2.67
2022-08-04T10:48:45.778Z,2.72
2022-08-04T10:51:28.774Z,2.70
2022-08-04T10:54:03.278Z,3.03
2022-08-04T10:56:41.810Z,3.50
2022-08-04T10:59:16.171Z,3.10
2022-08-04T11:02:00.164Z,3.92
2022-08-04T11:04:43.394Z,2.80
2022-08-04T11:07:15.361Z,3.25
2022-08-04T11:09:48.412Z,3.47
2022-08-04T11:12:22.414Z,3.15
2022-08-04T11:14:59.247Z,3.38
2022-08-04T11:17:33.932Z,3.17
2022-08-04T11:23:09.932Z,3.30
2022-08-04T11:25:53.881Z,3.25
2022-08-04T11:28:35.598Z,2.92
2022-08-04T11:31:07.593Z,2.95
2022-08-04T11:33:45.263Z,3.05
2022-08-04T11:36:23.371Z,3.03
2022-08-04T11:39:07.612Z,3.83
2022-08-04T11:41:49.259Z,3.38
2022-08-04T11:44:27.849Z,3.28
2022-08-04T11:47:03.467Z,3.30
2022-08-04T11:49:56.718Z,3.33
2022-08-04T11:52:29.108Z,3.58
2022-08-04T11:55:00.964Z,3.30
2022-08-04T11:57:35.893Z,2.63
2022-08-04T12:00:10.995Z,3.20
2022-08-04T12:03:16.258Z,3.00
2022-08-04T12:05:59.531Z,3.35
2022-08-04T12:08:55.224Z,2.80
2022-08-04T12:11:41.810Z,2.80
2022-08-04T12:14:22.903Z,2.80
2022-08-04T12:17:01.839Z,3.10
2022-08-04T12:20:04.401Z,3.85
2022-08-04T12:22:36.228Z,3.20
2022-08-04T12:25:13.120Z,2.90
2022-08-04T12:27:50.227Z,2.80
2022-08-04T12:31:00.427Z,2.50
2022-08-04T12:33:22.875Z,3.10
2022-08-04T12:36:23.120Z,2.75
2022-08-04T12:39:01.218Z,3.17
2022-08-04T12:41:37.498Z,2.88
2022-08-04T12:44:33.417Z,2.65
2022-08-04T12:47:27.379Z,2.95
2022-08-04T12:50:00.557Z,2.80
2022-08-04T12:55:23.869Z,2.60
2022-08-04T12:57:54.622Z,2.67
2022-08-04T13:00:39.967Z,2.70
2022-08-04T13:03:15.172Z,2.90
2022-08-04T13:05:45.846Z,3.30
2022-08-04T13:08:15.362Z,3.00
2022-08-04T13:10:48.975Z,3.40
2022-08-04T13:13:19.455Z,3.35
2022-08-04T13:16:00.965Z,4.25
2022-08-04T13:18:32.565Z,3.30
2022-08-04T13:21:19.502Z,3.00
2022-08-04T13:24:10.880Z,3.20
2022-08-04T13:26:54.730Z,2.65
2022-08-04T13:29:58.272Z,2.47
2022-08-04T13:32:22.323Z,2.65
2022-08-04T13:34:55.834Z,2.22
2022-08-04T13:37:32.870Z,2.30
2022-08-04T13:40:03.339Z,2.33
2022-08-04T13:42:35.785Z,2.60
2022-08-04T13:45:08.164Z,2.58
2022-08-04T13:47:41.855Z,2.38
2022-08-04T13:50:20.863Z,2.50
2022-08-04T13:52:53.485Z,3.00
2022-08-04T13:55:28.364Z,2.40
2022-08-04T13:58:06.791Z,2.42
2022-08-04T14:00:45.135Z,2.45
2022-08-04T14:03:27.119Z,2.55
2022-08-04T14:06:14.932Z,2.60
2022-08-04T14:08:51.866Z,2.20
2022-08-04T14:12:09.021Z,2.58
2022-08-04T14:14:19.535Z,2.70
2022-08-04T14:17:03.895Z,2.25
2022-08-04T14:19:52.916Z,2.00
2022-08-04T14:22:37.924Z,2.25
2022-08-04T14:25:15.334Z,2.20
2022-08-04T14:27:48.438Z,2.58
2022-08-04T14:30:28.795Z,3.05
2022-08-04T14:33:59.452Z,3.25
2022-08-04T14:36:03.860Z,2.40
2022-08-04T14:38:46.433Z,2.35
2022-08-04T14:41:15.857Z,2.20
2022-08-04T14:43:47.093Z,2.00
2022-08-04T14:46:16.109Z,2.28
2022-08-04T14:49:10.147Z,2.45
2022-08-04T14:51:42.673Z,2.80
2022-08-04T14:54:18.545Z,2.53
2022-08-04T14:56:55.368Z,2.45
2022-08-04T14:59:24.527Z,2.47
2022-08-04T15:02:01.338Z,2.28
2022-08-04T15:04:34.405Z,2.20
2022-08-04T15:07:04.539Z,2.17
2022-08-04T15:09:36.066Z,2.30
2022-08-04T15:12:06.666Z,2.28
2022-08-04T15:14:36.800Z,2.70
2022-08-04T15:17:12.521Z,2.30
2022-08-04T15:19:58.091Z,5.55
2022-08-04T15:22:30.121Z,4.20
2022-08-04T15:24:58.122Z,39.15
2022-08-04T15:27:33.082Z,6.30
2022-08-04T15:30:06.926Z,6.82
2022-08-04T15:32:39.164Z,2.20
2022-08-04T15:35:12.752Z,2.60
2022-08-04T15:37:55.842Z,2.95
2022-08-04T15:40:33.580Z,3.83
2022-08-04T15:43:44.983Z,3.47
2022-08-04T15:46:42.434Z,2.80
2022-08-04T15:49:20.221Z,3.22
2022-08-04T15:51:48.767Z,2.20
2022-08-04T15:54:27.959Z,2.15
2022-08-04T15:57:01.925Z,4.07
2022-08-04T16:00:11.296Z,3.05
2022-08-04T16:02:44.316Z,11.80
2022-08-04T16:05:40.293Z,8.30
2022-08-04T16:08:16.828Z,3.38
2022-08-04T16:10:53.414Z,3.15
2022-08-04T16:13:26.717Z,3.67
2022-08-04T16:15:56.009Z,2.17
2022-08-04T16:18:40.930Z,2.83
2022-08-04T16:21:21.476Z,2.60
2022-08-04T16:24:14.658Z,2.80
2022-08-04T16:26:54.384Z,2.17
2022-08-04T16:29:48.226Z,2.28
2022-08-04T16:32:20.527Z,2.28
2022-08-04T16:34:56.895Z,2.50
2022-08-04T16:37:31.355Z,2.60
2022-08-04T16:40:35.214Z,2.40
2022-08-04T16:43:09.108Z,2.40
2022-08-04T16:45:55.604Z,2.35
2022-08-04T16:48:27.113Z,2.40
2022-08-04T16:51:07.419Z,6.90
2022-08-04T16:54:03.146Z,2.40
2022-08-04T16:56:34.460Z,2.65
2022-08-04T16:59:12.903Z,2.60
2022-08-04T17:01:48.389Z,2.80
2022-08-04T17:04:16.750Z,4.40
2022-08-04T17:06:47.498Z,3.22
2022-08-04T17:09:22.388Z,2.72
2022-08-04T17:11:54.636Z,2.55
2022-08-04T17:14:26.580Z,2.45
2022-08-04T17:16:58.052Z,2.70
2022-08-04T17:19:27.067Z,2.33
2022-08-04T17:22:04.190Z,2.65
2022-08-04T17:24:35.101Z,2.60
2022-08-04T17:27:04.210Z,3.22
2022-08-04T17:29:52.702Z,2.17
2022-08-04T17:32:23.213Z,2.50
2022-08-04T17:34:55.368Z,2.40
2022-08-04T17:37:38.523Z,2.45
2022-08-04T17:40:18.089Z,2.65
2022-08-04T17:42:51.040Z,4.55
2022-08-04T17:45:50.556Z,4.50
2022-08-04T17:48:24.505Z,4.75
2022-08-04T17:50:53.416Z,5.13
2022-08-04T17:53:52.938Z,3.00
2022-08-04T17:56:43.122Z,2.40
2022-08-04T17:59:52.227Z,2.70
2022-08-04T18:02:13.189Z,2.97
2022-08-04T18:05:06.061Z,4.07
2022-08-04T18:08:34.535Z,13.77
2022-08-04T18:10:51.910Z,9.95
2022-08-04T18:13:26.657Z,7.82
2022-08-04T18:16:03.402Z,10.48
2022-08-04T18:18:32.962Z,6.78
2022-08-04T18:21:02.765Z,5.85
2022-08-04T18:23:32.726Z,19.70
2022-08-04T18:26:01.798Z,12.20
2022-08-04T18:28:33.163Z,23.92
2022-08-04T18:31:02.220Z,16.70
2022-08-04T18:33:40.100Z,17.35
2022-08-04T18:36:35.435Z,18.70
2022-08-04T18:39:12.720Z,23.15
2022-08-04T18:42:01.649Z,10.10
2022-08-04T18:44:32.867Z,8.80
2022-08-04T18:47:29.767Z,7.57
2022-08-04T18:50:59.674Z,23.08
2022-08-04T18:52:59.440Z,37.25
2022-08-04T18:55:55.416Z,32.58
2022-08-04T18:58:26.863Z,64.15
2022-08-04T19:01:00.451Z,23.70
2022-08-04T19:03:30.550Z,10.45
2022-08-04T19:06:01.901Z,9.05
2022-08-04T19:08:33.053Z,8.90
2022-08-04T19:11:01.885Z,7.80
2022-08-04T19:13:54.802Z,17.67
2022-08-04T19:16:26.890Z,10.05
2022-08-04T19:18:55.539Z,13.05
2022-08-04T19:21:59.353Z,11.30
2022-08-04T19:24:31.180Z,10.05
2022-08-04T19:27:07.492Z,10.85
2022-08-04T19:29:41.008Z,10.73
2022-08-04T19:32:14.016Z,7.40
2022-08-04T19:34:46.243Z,15.23
2022-08-04T19:38:01.087Z,11.00
2022-08-04T19:40:10.153Z,19.38
2022-08-04T19:42:38.512Z,15.88
2022-08-04T19:45:09.266Z,9.20
2022-08-04T19:48:18.062Z,10.73
2022-08-04T19:50:39.769Z,11.32
2022-08-04T19:53:19.301Z,11.25
2022-08-04T19:55:50.447Z,7.32
2022-08-04T19:58:26.466Z,6.60
2022-08-04T20:00:55.778Z,6.00
2022-08-04T20:04:08.531Z,13.13
2022-08-04T20:06:12.086Z,8.00
2022-08-04T20:08:47.959Z,10.05
2022-08-04T20:11:20.598Z,6.78
2022-08-04T20:13:54.839Z,6.35
2022-08-04T20:16:30.449Z,6.72
2022-08-04T20:19:03.347Z,5.43
2022-08-04T20:21:55.574Z,7.95
2022-08-04T20:24:39.289Z,6.32
2022-08-04T20:27:15.503Z,6.25
2022-08-04T20:29:48.609Z,6.40
2022-08-04T20:32:21.928Z,5.85
2022-08-04T20:34:51.977Z,5.63
2022-08-04T20:37:23.011Z,5.47
2022-08-04T20:39:58.140Z,6.00
2022-08-04T20:42:34.017Z,5.80
2022-08-04T20:45:04.860Z,6.30
2022-08-04T20:47:35.264Z,9.05
2022-08-04T20:50:05.876Z,8.98
2022-08-04T20:52:37.868Z,6.32
2022-08-04T20:55:08.324Z,5.97
2022-08-04T20:57:48.270Z,4.25
2022-08-04T21:00:29.680Z,5.38
2022-08-04T21:02:59.026Z,5.95
2022-08-04T21:05:26.947Z,5.93
2022-08-04T21:07:58.988Z,7.10
2022-08-04T21:10:27.863Z,7.70
2022-08-04T21:12:57.357Z,8.57
2022-08-04T21:15:58.756Z,7.78
2022-08-04T21:21:03.541Z,8.90
2022-08-04T21:23:33.924Z,27.17
2022-08-04T21:26:03.599Z,36.83
2022-08-04T21:28:33.433Z,19.95
2022-08-04T21:31:02.442Z,12.05
2022-08-04T21:33:50.519Z,8.18
2022-08-04T21:36:20.302Z,9.73
2022-08-04T21:38:51.541Z,24.63
2022-08-04T21:41:25.237Z,14.10
2022-08-04T21:43:58.791Z,9.90
2022-08-04T21:46:27.643Z,22.92
2022-08-04T21:48:58.681Z,14.32
2022-08-04T21:51:58.489Z,13.23
2022-08-04T21:54:17.655Z,14.05
2022-08-04T21:56:51.644Z,8.98
2022-08-04T21:59:23.959Z,7.35
2022-08-04T22:02:00.269Z,10.05
2022-08-04T22:04:28.864Z,11.35
2022-08-04T22:06:56.726Z,8.93
2022-08-04T22:09:24.545Z,6.40
2022-08-04T22:11:56.812Z,6.15
2022-08-04T22:14:28.879Z,6.43
2022-08-04T22:17:01.593Z,6.35
2022-08-04T22:19:40.265Z,7.10
2022-08-04T22:22:26.125Z,6.35
2022-08-04T22:24:58.682Z,6.63
2022-08-04T22:27:47.800Z,6.18
2022-08-04T22:30:29.323Z,4.93
2022-08-04T22:33:01.685Z,6.40
2022-08-04T22:35:36.368Z,5.68
2022-08-04T22:38:20.827Z,5.05
2022-08-04T22:40:59.141Z,4.90
2022-08-04T22:43:33.234Z,4.93
2022-08-04T22:46:06.761Z,6.20
2022-08-04T22:48:37.333Z,12.55
2022-08-04T22:51:08.525Z,7.95
2022-08-04T22:53:37.304Z,7.57
2022-08-04T22:56:10.330Z,22.17
2022-08-04T22:58:45.477Z,14.80
2022-08-04T23:01:20.023Z,5.68
2022-08-04T23:03:55.988Z,5.20
2022-08-04T23:06:28.600Z,4.53
2022-08-04T23:08:57.253Z,4.90
2022-08-04T23:11:34.432Z,15.30
2022-08-04T23:14:04.105Z,7.15
2022-08-04T23:16:40.799Z,17.27
2022-08-04T23:19:12.098Z,29.05
2022-08-04T23:21:47.873Z,12.65
2022-08-04T23:24:30.179Z,5.65
2022-08-04T23:26:58.275Z,4.30
2022-08-04T23:29:27.434Z,5.68
2022-08-04T23:31:59.991Z,8.68
2022-08-04T23:34:29.159Z,6.18
2022-08-04T23:36:59.293Z,11.45
2022-08-04T23:40:03.347Z,7.18
2022-08-04T23:42:21.335Z,7.10
2022-08-04T23:44:49.826Z,7.75
2022-08-04T23:48:19.093Z,6.72
2022-08-04T23:50:08.318Z,7.30
2022-08-04T23:52:36.126Z,6.35
2022-08-04T23:55:07.379Z,6.88
2022-08-04T23:58:06.099Z,14.68
